.
WxDataArchive / Data Records for 2013-05-17
2013-05-16 May 2013 2013-05-18

Data Records for Friday, 17 May 2013

Time	Temp	Chill	HIndex	Humid	Dewpt	 Wind 	HiWind	WindDir	Rain 	Barom 
-----	----	-----	------	-----	-----	------	------	-------	-----	----- 
00:00	60.9	60.9	60.9	60	46.9	0	0	---	0.00	29.952 
00:05	60.7	60.7	60.7	61	47.2	0	0	---	0.00	29.952 
00:10	60.5	60.5	60.5	61	47.0	0	0	---	0.00	29.952 
00:15	60.4	60.4	60.4	62	47.3	0	0	---	0.00	29.956 
00:20	60.2	60.2	60.2	61	46.7	0	0	---	0.00	29.956 
00:25	60.2	60.2	60.2	62	47.1	0	0	---	0.00	29.956 
00:30	59.9	59.9	59.9	62	46.8	0	0	---	0.00	29.960 
00:35	59.8	59.8	59.8	62	46.8	0	0	---	0.00	29.960 
00:40	59.5	59.5	59.5	62	46.5	0	0	---	0.00	29.960 
00:45	59.3	59.3	59.3	63	46.7	0	0	---	0.00	29.958 
00:50	59.0	59.0	59.0	64	46.8	0	0	---	0.00	29.958 
00:55	58.7	58.7	58.7	65	47.0	0	0	---	0.00	29.958 
01:00	58.4	58.4	58.4	65	46.7	0	0	---	0.00	29.958 
01:05	58.3	58.3	58.3	65	46.6	0	0	---	0.00	29.958 
01:10	58.0	58.0	58.0	65	46.3	0	0	---	0.00	29.958 
01:15	57.8	57.8	57.8	66	46.5	0	0	---	0.00	29.960 
01:20	57.5	57.5	57.5	66	46.2	0	0	---	0.00	29.960 
01:25	57.3	57.3	57.3	67	46.4	0	0	---	0.00	29.960 
01:30	57.2	57.2	57.2	67	46.3	0	0	---	0.00	29.962 
01:35	57.0	57.0	57.0	69	46.9	0	0	---	0.00	29.962 
01:40	57.0	57.0	57.0	69	46.9	0	0	---	0.00	29.962 
01:45	56.9	56.9	56.9	69	46.8	0	0	---	0.00	29.961 
01:50	56.7	56.7	56.7	69	46.6	0	0	---	0.00	29.961 
01:55	56.7	56.7	56.7	69	46.6	0	0	---	0.00	29.961 
02:00	56.6	56.6	56.6	70	46.9	0	0	---	0.00	29.960 
02:05	56.5	56.5	56.5	71	47.2	0	0	---	0.00	29.960 
02:10	56.3	56.3	56.3	71	47.0	0	0	---	0.00	29.960 
02:15	56.2	56.2	56.2	72	47.3	0	0	---	0.00	29.960 
02:20	56.0	56.0	56.0	72	47.1	0	0	---	0.00	29.960 
02:25	56.0	56.0	56.0	72	47.1	0	0	---	0.00	29.960 
02:30	55.9	55.9	55.9	73	47.4	0	0	---	0.00	29.960 
02:35	55.7	55.7	55.7	74	47.5	0	0	---	0.00	29.960 
02:40	55.4	55.4	55.4	75	47.6	0	0	---	0.00	29.960 
02:45	55.4	55.4	55.4	76	48.0	0	0	---	0.00	29.960 
02:50	55.4	55.4	55.4	77	48.3	0	2	90	0.00	29.960 
02:55	56.5	56.5	56.5	69	46.5	1	4	90	0.00	29.960 
03:00	58.4	58.4	58.4	64	46.3	1	4	90	0.00	29.960 
03:05	59.6	59.6	59.6	62	46.6	1	3	90	0.00	29.960 
03:10	60.2	60.2	60.2	62	47.1	2	5	90	0.00	29.960 
03:15	60.4	60.4	60.4	62	47.3	2	5	90	0.00	29.963 
03:20	60.2	60.2	60.2	63	47.6	2	7	90	0.00	29.963 
03:25	59.9	59.9	59.9	63	47.3	1	3	68	0.00	29.963 
03:30	59.5	59.5	59.5	64	47.3	2	5	90	0.00	29.972 
03:35	59.2	59.2	59.2	65	47.4	1	6	90	0.00	29.972 
03:40	58.7	58.7	58.7	65	47.0	1	5	90	0.00	29.972 
03:45	58.4	58.4	58.4	65	46.7	1	4	90	0.00	29.974 
03:50	58.1	58.1	58.1	65	46.4	1	3	112	0.00	29.974 
03:55	57.8	57.8	57.8	65	46.1	1	4	90	0.00	29.974 
04:00	57.6	57.6	57.6	65	45.9	1	5	90	0.00	29.973 
04:05	57.3	57.3	57.3	66	46.0	0	3	90	0.00	29.973 
04:10	57.0	57.0	57.0	66	45.8	0	1	90	0.00	29.973 
04:15	56.6	56.6	56.6	65	45.0	0	3	90	0.00	29.979 
04:20	56.5	56.5	56.5	65	44.9	0	2	90	0.00	29.979 
04:25	56.2	56.2	56.2	64	44.2	0	2	90	0.00	29.979 
04:30	56.0	56.0	56.0	62	43.2	1	5	90	0.00	29.988 
04:35	55.9	55.9	55.9	61	42.6	0	1	90	0.00	29.988 
04:40	55.7	55.7	55.7	60	42.0	0	3	90	0.00	29.988 
04:45	55.4	55.4	55.4	60	41.7	0	3	90	0.00	29.992 
04:50	55.3	55.3	55.3	60	41.7	0	1	90	0.00	29.992 
04:55	55.1	55.1	55.1	59	41.0	1	3	90	0.00	29.992 
05:00	55.0	55.0	55.0	59	40.9	1	3	90	0.00	29.995 
05:05	54.8	54.8	54.8	58	40.3	1	3	90	0.00	29.995 
05:10	54.7	54.7	54.7	58	40.2	0	2	90	0.00	29.995 
05:15	54.5	54.5	54.5	58	40.0	1	3	90	0.00	30.004 
05:20	54.4	54.4	54.4	58	39.9	1	2	90	0.00	30.004 
05:25	54.2	54.2	54.2	58	39.7	1	3	90	0.00	30.004 
05:30	54.1	54.1	54.1	58	39.7	0	2	90	0.00	30.005 
05:35	53.8	53.8	53.8	58	39.4	1	3	90	0.00	30.005 
05:40	53.6	53.6	53.6	59	39.6	0	2	90	0.00	30.005 
05:45	53.5	53.5	53.5	58	39.1	1	3	90	0.00	30.007 
05:50	53.5	53.5	53.5	59	39.5	0	2	90	0.00	30.007 
05:55	53.3	53.3	53.3	59	39.3	0	2	90	0.00	30.007 
06:00	53.2	53.2	53.2	59	39.2	1	2	90	0.00	30.009 
06:05	53.1	53.1	53.1	59	39.2	1	3	90	0.00	30.009 
06:10	52.8	52.8	52.8	60	39.3	0	2	90	0.00	30.009 
06:15	52.6	52.6	52.6	60	39.1	0	2	90	0.00	30.015 
06:20	52.5	52.5	52.5	61	39.4	0	1	90	0.00	30.015 
06:25	52.3	52.3	52.3	62	39.7	0	1	90	0.00	30.015 
06:30	52.2	52.2	52.2	62	39.6	0	3	90	0.00	30.017 
06:35	52.2	52.2	52.2	62	39.6	0	2	90	0.00	30.017 
06:40	52.0	52.0	52.0	61	39.0	0	2	90	0.00	30.017 
06:45	52.2	52.2	52.2	61	39.2	0	2	90	0.00	30.027 
06:50	52.2	52.2	52.2	61	39.2	1	2	90	0.00	30.027 
06:55	52.3	52.3	52.3	61	39.3	1	5	90	0.00	30.027 
07:00	52.3	52.3	52.3	62	39.7	1	2	90	0.00	30.027 
07:05	52.3	52.3	52.3	62	39.7	1	4	90	0.00	30.027 
07:10	52.5	52.5	52.5	62	39.9	1	3	90	0.00	30.027 
07:15	52.6	52.6	52.6	62	40.0	0	3	90	0.00	30.031 
07:20	52.8	52.8	52.8	62	40.1	1	6	90	0.00	30.031 
07:25	53.1	53.1	53.1	61	40.0	1	4	90	0.00	30.031 
07:30	53.2	53.2	53.2	61	40.1	1	4	90	0.00	30.036 
07:35	53.5	53.5	53.5	61	40.4	1	3	90	0.00	30.036 
07:40	54.2	54.2	54.2	60	40.6	1	5	90	0.00	30.036 
07:45	54.7	54.7	54.7	58	40.2	1	6	90	0.00	30.041 
07:50	55.1	55.1	55.1	58	40.6	1	5	90	0.00	30.041 
07:55	55.4	55.4	55.4	58	40.9	2	5	112	0.00	30.041 
08:00	55.4	55.4	55.4	58	40.9	2	5	112	0.00	30.040 
08:05	55.6	55.6	55.6	58	41.1	3	7	90	0.00	30.040 
08:10	55.9	55.9	55.9	58	41.3	3	7	112	0.00	30.040 
08:15	55.7	55.7	55.7	59	41.6	2	6	112	0.00	30.045 
08:20	55.7	55.7	55.7	59	41.6	2	5	112	0.00	30.045 
08:25	56.2	56.2	56.2	59	42.1	2	6	90	0.00	30.045 
08:30	56.7	56.7	56.7	59	42.5	2	4	90	0.00	30.051 
08:35	57.6	57.6	57.6	58	42.9	2	5	90	0.00	30.051 
08:40	58.3	58.3	58.3	57	43.1	2	10	90	0.00	30.051 
08:45	58.7	58.7	58.7	56	43.0	2	7	90	0.00	30.054 
08:50	59.0	59.0	59.0	57	43.8	2	5	90	0.00	30.054 
08:55	59.5	59.5	59.5	57	44.3	3	8	68	0.00	30.054 
09:00	59.8	59.8	59.8	56	44.1	3	7	90	0.00	30.043 
09:05	60.2	60.2	60.2	55	44.0	2	5	135	0.00	30.043 
09:10	60.5	60.5	60.5	55	44.2	3	6	68	0.00	30.043 
09:15	60.9	60.9	60.9	55	44.6	2	6	90	0.00	30.054 
09:20	61.2	61.2	61.2	54	44.4	2	5	112	0.00	30.054 
09:25	61.5	61.5	61.5	53	44.2	3	7	90	0.00	30.054 
09:30	61.8	61.8	61.8	55	45.5	2	6	90	0.00	30.059 
09:35	62.3	62.3	62.3	53	44.9	2	7	90	0.00	30.059 
09:40	62.9	62.9	62.9	52	45.0	2	6	90	0.00	30.059 
09:45	63.2	63.2	63.2	52	45.3	2	6	90	0.00	30.060 
09:50	63.7	63.7	63.7	52	45.7	1	6	90	0.00	30.060 
09:55	64.5	64.5	64.5	51	46.0	1	4	90	0.00	30.060 
10:00	64.8	64.8	64.8	50	45.7	2	6	90	0.00	30.056 
10:05	65.3	65.3	65.3	50	46.2	1	4	112	0.00	30.056 
10:10	65.8	65.8	65.8	49	46.1	1	4	112	0.00	30.056 
10:15	66.3	66.3	66.3	50	47.1	1	6	112	0.00	30.059 
10:20	66.6	66.6	66.6	48	46.3	2	4	112	0.00	30.059 
10:25	67.1	67.1	67.1	47	46.2	1	5	112	0.00	30.059 
10:30	67.4	67.4	67.4	48	47.0	2	4	112	0.00	30.059 
10:35	67.8	67.8	67.8	48	47.4	2	6	112	0.00	30.059 
10:40	68.1	68.1	68.1	50	48.7	1	5	112	0.00	30.059 
10:45	68.8	68.8	68.8	50	49.4	1	5	112	0.00	30.056 
10:50	69.3	69.3	69.3	46	47.6	1	4	90	0.00	30.056 
10:55	69.4	69.4	69.4	45	47.1	1	5	90	0.00	30.056 
11:00	68.9	68.9	68.9	46	47.3	2	6	90	0.00	30.055 
11:05	68.4	68.4	68.4	48	47.9	3	6	90	0.00	30.055 
11:10	68.6	68.6	68.6	47	47.6	3	7	112	0.00	30.055 
11:15	69.1	69.1	69.1	47	48.0	3	7	90	0.00	30.049 
11:20	69.8	69.8	69.8	46	48.1	2	5	90	0.00	30.049 
11:25	70.4	70.4	70.4	46	48.6	2	6	112	0.00	30.049 
11:30	71.1	71.1	71.1	45	48.7	2	6	112	0.00	30.048 
11:35	71.5	71.5	71.5	45	49.0	2	6	90	0.00	30.048 
11:40	72.0	72.0	72.0	44	48.9	2	4	90	0.00	30.048 
11:45	72.1	72.1	72.1	44	49.0	2	5	90	0.00	30.044 
11:50	72.7	72.7	72.7	45	50.1	2	6	90	0.00	30.044 
11:55	73.0	73.0	73.0	45	50.4	2	6	68	0.00	30.044 
12:00	73.2	73.2	73.2	45	50.6	2	5	90	0.00	30.043 
12:05	73.3	73.3	73.3	42	48.8	2	8	112	0.00	30.043 
12:10	73.5	73.5	73.5	45	50.8	2	6	90	0.00	30.043 
12:15	74.0	74.0	74.0	43	50.1	1	6	90	0.00	30.045 
12:20	74.7	74.7	74.7	42	50.1	2	4	90	0.00	30.045 
12:25	74.9	74.9	74.9	41	49.6	2	5	90	0.00	30.045 
12:30	74.7	74.7	74.7	42	50.1	2	4	90	0.00	30.043 
12:35	75.3	75.3	77.7	43	51.2	1	4	90	0.00	30.043 
12:40	76.0	76.0	77.9	42	51.2	2	5	112	0.00	30.043 
12:45	76.5	76.5	78.0	40	50.4	2	7	112	0.00	30.040 
12:50	76.3	76.3	77.9	39	49.5	3	6	90	0.00	30.040 
12:55	76.7	76.7	78.1	41	51.2	1	4	90	0.00	30.040 
13:00	76.8	76.8	78.1	40	50.6	1	5	90	0.00	30.039 
13:05	77.2	77.2	78.3	39	50.3	1	4	90	0.00	30.039 
13:10	77.2	77.2	78.4	41	51.7	2	5	112	0.00	30.039 
13:15	77.0	77.0	78.2	39	50.1	3	6	90	0.00	30.037 
13:20	77.0	77.0	78.3	41	51.5	0	3	90	0.00	30.037 
13:25	77.6	77.6	78.5	40	51.3	1	4	90	0.00	30.037 
13:30	78.5	78.5	79.0	40	52.1	1	4	90	0.00	30.033 
13:35	79.4	79.4	79.3	37	50.8	1	4	90	0.00	30.033 
13:40	80.1	80.1	79.8	38	52.2	2	5	90	0.00	30.033 
13:45	80.1	80.1	79.6	35	50.0	2	4	90	0.00	30.029 
13:50	79.8	79.8	79.4	35	49.7	1	6	90	0.00	30.029 
13:55	79.0	79.0	79.0	36	49.7	2	6	90	0.00	30.029 
14:00	78.5	78.5	78.7	35	48.5	1	4	112	0.00	30.024 
14:05	78.5	78.5	78.8	37	50.0	0	3	112	0.00	30.024 
14:10	78.5	78.5	78.7	35	48.5	0	1	112	0.00	30.024 
14:15	78.6	78.6	78.7	35	48.6	0	1	112	0.00	30.023 
14:20	78.8	78.8	78.8	35	48.8	0	1	112	0.00	30.023 
14:25	78.8	78.8	78.8	35	48.8	1	3	112	0.00	30.023 
14:30	78.6	78.6	78.7	35	48.6	0	2	112	0.00	30.021 
14:35	78.6	78.6	78.7	35	48.6	0	1	112	0.00	30.021 
14:40	78.6	78.6	78.7	35	48.6	0	1	112	0.00	30.021 
14:45	78.5	78.5	78.7	35	48.5	0	2	112	0.00	30.020 
14:50	78.5	78.5	78.7	35	48.5	0	2	112	0.00	30.020 
14:55	78.1	78.1	78.5	35	48.2	1	3	112	0.00	30.020 
15:00	77.9	77.9	78.4	36	48.8	0	1	112	0.00	30.012 
15:05	77.9	77.9	78.4	36	48.8	0	1	112	0.00	30.012 
15:10	77.9	77.9	78.5	37	49.5	0	1	112	0.00	30.012 
15:15	77.9	77.9	78.5	37	49.5	0	1	112	0.00	30.007 
15:20	77.9	77.9	78.5	37	49.5	0	2	112	0.00	30.007 
15:25	77.9	77.9	78.5	37	49.5	0	1	112	0.00	30.007 
15:30	78.1	78.1	78.5	36	48.9	0	1	112	0.00	30.003 
15:35	78.1	78.1	78.6	37	49.7	0	1	112	0.00	30.003 
15:40	78.3	78.3	78.6	36	49.1	0	2	112	0.00	30.003 
15:45	78.6	78.6	78.9	38	50.8	0	0	---	0.00	29.995 
15:50	79.0	79.0	79.0	35	49.0	0	2	112	0.00	29.995 
15:55	79.2	79.2	79.2	37	50.7	1	3	112	0.00	29.995 
16:00	79.4	79.4	79.2	36	50.1	1	3	112	0.00	29.991 
16:05	79.8	79.8	79.4	35	49.7	0	3	112	0.00	29.991 
16:10	79.9	79.9	79.6	36	50.5	2	5	112	0.00	29.991 
16:15	80.1	80.1	79.6	35	50.0	2	7	90	0.00	29.988 
16:20	80.1	80.1	79.7	36	50.7	2	7	90	0.00	29.988 
16:25	80.3	80.3	79.7	34	49.3	2	6	90	0.00	29.988 
16:30	80.7	80.7	80.0	35	50.5	2	6	90	0.00	29.977 
16:35	81.4	81.4	80.5	35	51.1	2	6	90	0.00	29.977 
16:40	82.4	82.4	81.1	34	51.2	2	6	90	0.00	29.977 
16:45	82.4	82.4	80.9	31	48.7	3	6	112	0.00	29.974 
16:50	81.8	81.8	80.6	33	49.9	2	5	90	0.00	29.974 
16:55	81.2	81.2	80.1	32	48.5	3	9	90	0.00	29.974 
17:00	80.9	80.9	80.0	33	49.1	3	7	90	0.00	29.975 
17:05	80.7	80.7	79.9	34	49.7	3	9	90	0.00	29.975 
17:10	80.1	80.1	79.6	35	50.0	4	10	90	0.00	29.975 
17:15	79.4	79.4	79.2	35	49.3	3	10	112	0.00	29.981 
17:20	79.0	79.0	79.0	35	49.0	3	6	90	0.00	29.981 
17:25	78.8	78.8	78.8	35	48.8	4	9	112	0.00	29.981 
17:30	78.8	78.8	78.8	34	48.0	4	11	90	0.00	29.983 
17:35	78.6	78.6	78.8	36	49.4	2	7	112	0.00	29.983 
17:40	78.6	78.6	78.7	35	48.6	2	8	112	0.00	29.983 
17:45	78.6	78.6	78.7	35	48.6	4	11	112	0.00	29.983 
17:50	78.3	78.3	78.6	36	49.1	4	11	112	0.00	29.983 
17:55	77.7	77.7	78.3	36	48.6	4	10	90	0.00	29.983 
18:00	77.4	77.4	78.3	38	49.8	3	11	90	0.00	29.985 
18:05	77.2	77.2	78.1	36	48.2	4	12	90	0.00	29.985 
18:10	76.8	76.8	78.0	38	49.2	4	9	90	0.00	29.985 
18:15	76.5	76.5	77.9	37	48.3	4	10	90	0.00	29.995 
18:20	76.1	76.1	77.8	38	48.6	4	10	90	0.00	29.995 
18:25	76.0	76.0	77.7	38	48.5	3	7	90	0.00	29.995 
18:30	75.8	75.8	77.6	36	46.9	3	10	112	0.00	29.999 
18:35	75.6	75.6	77.6	39	48.9	3	7	90	0.00	29.999 
18:40	75.1	75.1	77.4	37	47.0	3	7	90	0.00	29.999 
18:45	74.7	74.7	74.7	37	46.7	4	12	90	0.00	30.007 
18:50	74.4	74.4	74.4	37	46.4	4	7	90	0.00	30.007 
18:55	74.0	74.0	74.0	38	46.8	4	13	90	0.00	30.007 
19:00	73.9	73.9	73.9	39	47.4	3	7	90	0.00	30.013 
19:05	73.5	73.5	73.5	38	46.3	4	9	112	0.00	30.013 
19:10	73.2	73.2	73.2	37	45.4	4	14	90	0.00	30.013 
19:15	72.8	72.8	72.8	38	45.7	3	11	90	0.00	30.018 
19:20	72.5	72.5	72.5	38	45.4	3	7	90	0.00	30.018 
19:25	72.5	72.5	72.5	40	46.8	2	7	90	0.00	30.018 
19:30	72.3	72.3	72.3	39	45.9	2	6	112	0.00	30.026 
19:35	72.0	72.0	72.0	39	45.7	2	5	90	0.00	30.026 
19:40	71.8	71.8	71.8	39	45.5	3	7	90	0.00	30.026 
19:45	71.5	71.5	71.5	39	45.2	2	6	68	0.00	30.031 
19:50	71.3	71.3	71.3	39	45.1	2	6	90	0.00	30.031 
19:55	70.9	70.9	70.9	40	45.4	1	4	90	0.00	30.031 
20:00	70.6	70.6	70.6	41	45.7	1	5	90	0.00	30.046 
20:05	70.3	70.3	70.3	40	44.8	0	2	90	0.00	30.046 
20:10	70.1	70.1	70.1	40	44.6	1	3	90	0.00	30.046 
20:15	69.6	69.6	69.6	40	44.2	2	7	112	0.00	30.059 
20:20	69.3	69.3	69.3	39	43.3	2	6	112	0.00	30.059 
20:25	68.8	68.8	68.8	39	42.8	2	6	112	0.00	30.059 
20:30	68.3	68.3	68.3	39	42.4	3	7	90	0.00	30.072 
20:35	67.9	67.9	67.9	39	42.0	4	10	90	0.00	30.072 
20:40	67.6	67.6	67.6	39	41.8	3	10	90	0.00	30.072 
20:45	67.1	67.1	67.1	40	42.0	3	6	90	0.00	30.076 
20:50	66.8	66.8	66.8	41	42.3	3	6	112	0.00	30.076 
20:55	66.4	66.4	66.4	41	42.0	3	7	112	0.00	30.076 
21:00	66.1	66.1	66.1	42	42.3	3	7	90	0.00	30.078 
21:05	66.0	66.0	66.0	42	42.2	2	5	90	0.00	30.078 
21:10	65.8	65.8	65.8	43	42.7	2	8	112	0.00	30.078 
21:15	65.8	65.8	65.8	43	42.7	2	5	90	0.00	30.075 
21:20	65.5	65.5	65.5	44	43.0	2	5	112	0.00	30.075 
21:25	65.5	65.5	65.5	43	42.4	2	6	112	0.00	30.075 
21:30	65.3	65.3	65.3	43	42.2	1	5	90	0.00	30.076 
21:35	65.2	65.2	65.2	43	42.1	1	4	68	0.00	30.076 
21:40	65.0	65.0	65.0	43	42.0	1	3	68	0.00	30.076 
21:45	64.8	64.8	64.8	43	41.8	0	2	68	0.00	30.075 
21:50	64.7	64.7	64.7	43	41.7	1	4	68	0.00	30.075 
21:55	64.7	64.7	64.7	43	41.7	2	5	90	0.00	30.075 
22:00	64.5	64.5	64.5	43	41.5	1	4	112	0.00	30.075 
22:05	64.5	64.5	64.5	43	41.5	1	4	90	0.00	30.075 
22:10	64.3	64.3	64.3	42	40.7	2	6	90	0.00	30.075 
22:15	64.3	64.3	64.3	42	40.7	2	5	112	0.00	30.072 
22:20	64.2	64.2	64.2	43	41.2	2	5	90	0.00	30.072 
22:25	64.2	64.2	64.2	43	41.2	2	5	68	0.00	30.072 
22:30	63.9	63.9	63.9	43	41.0	2	5	90	0.00	30.073 
22:35	63.9	63.9	63.9	43	41.0	2	6	90	0.00	30.073 
22:40	63.7	63.7	63.7	43	40.8	3	8	112	0.00	30.073 
22:45	63.5	63.5	63.5	43	40.6	3	10	90	0.00	30.073 
22:50	63.4	63.4	63.4	42	39.9	3	5	90	0.00	30.073 
22:55	63.2	63.2	63.2	42	39.7	3	7	90	0.00	30.073 
23:00	63.1	63.1	63.1	43	40.2	3	10	90	0.00	30.075 
23:05	62.7	62.7	62.7	42	39.3	3	6	90	0.00	30.075 
23:10	62.6	62.6	62.6	42	39.2	3	10	68	0.00	30.075 
23:15	62.3	62.3	62.3	43	39.5	2	5	68	0.00	30.071 
23:20	62.1	62.1	62.1	43	39.3	3	7	90	0.00	30.071 
23:25	62.0	62.0	62.0	43	39.2	3	6	90	0.00	30.071 
23:30	61.6	61.6	61.6	43	38.9	3	7	68	0.00	30.067 
23:35	61.5	61.5	61.5	44	39.4	2	4	68	0.00	30.067 
23:40	61.3	61.3	61.3	44	39.2	2	6	90	0.00	30.067 
23:45	61.3	61.3	61.3	44	39.2	2	9	90	0.00	30.065 
23:50	61.2	61.2	61.2	44	39.1	2	7	90	0.00	30.065 
23:55	61.0	61.0	61.0	44	38.9	2	5	90	0.00	30.065 

CoCoRaHS
IN-AL-39
A2 Web Hosting
Creative Commons License
GoDaddy
search engine by freefind advanced

loaded 2018-11-13 01:38:31 • last modified 2010-11-18 10:43:29
Privacy PolicyDisclaimer
• wx.awcolley.com is powered by PmWiki v.2002016 •
• all content (unless otherwise noted) © 2018 A W Colley